Terminal Aerodrome Forecast
Issued by NWS Sterling, VA

Current Version | Previous Version | Graphics & Text | Print | Product List | Glossary Off
Versions: 1 2 3 4 5 6 7 8 9 10 11 12 13 14 15

000
FTUS41 KLWX 241512 AAA
TAFMRB
TAF AMD
KMRB 241512Z 2415/2512 VRB04KT P6SM -RA OVC040
     FM241700 06008G16KT 3SM RA SCT008 BKN015 OVC050
     FM250000 06009KT 3SM -RA BKN008 OVC015
     FM250500 VRB04KT 3SM -RA BKN004 OVC015=

USA.gov is the U.S. government's official web portal to all federal, state and local government web resources and services.